Terminal Aerodrome Forecast
Issued by NWS Portland, ME

Home | Current Version | Previous Version | Text Only | Print | Product List | Glossary On
Versions: 1 2 3 4 5 6 7 8 9 10 11 12 13 14 15 16 17 18 19 20 21 22 23 24 25 26 27 28 29 30
000
FTUS41 KGYX 230834 AAA
TAFCON
TAF AMD
KCON 230834Z 2309/2406 01012G20KT 6SM -RA BR OVC015 WS020/06050KT
     FM231000 02015G23KT 2SM RA BR OVC007 WS020/05055KT
     FM231500 36015G23KT 4SM -RA BR OVC007
     FM231800 36015G23KT P6SM -SHRA OVC012=

USA.gov is the U.S. government's official web portal to all federal, state and local government web resources and services.